createdAt,value
2023-01-05T00:00:46.544Z,102174.72
2023-01-05T00:03:33.689Z,102170.31
2023-01-05T00:06:25.994Z,102170.28
2023-01-05T00:09:13.365Z,102166.78
2023-01-05T00:11:59.101Z,102178.91
2023-01-05T00:14:48.037Z,102174.56
2023-01-05T00:17:42.359Z,102127.94
2023-01-05T00:20:36.689Z,102173.59
2023-01-05T00:23:24.135Z,102174.38
2023-01-05T00:26:11.191Z,102164.66
2023-01-05T00:28:58.008Z,102169.97
2023-01-05T00:31:45.164Z,102166.50
2023-01-05T00:34:32.077Z,102167.28
2023-01-05T00:37:19.249Z,102172.44
2023-01-05T00:40:06.034Z,102182.84
2023-01-05T00:42:53.092Z,102160.84
2023-01-05T00:45:40.188Z,102187.16
2023-01-05T00:48:27.380Z,102194.06
2023-01-05T00:51:14.309Z,102192.31
2023-01-05T00:54:01.301Z,102177.38
2023-01-05T00:56:48.390Z,102178.34
2023-01-05T00:59:36.802Z,102187.94
2023-01-05T01:02:24.077Z,102194.88
2023-01-05T01:05:11.217Z,102190.53
2023-01-05T01:07:58.297Z,102173.88
2023-01-05T01:10:45.328Z,102184.47
2023-01-05T01:13:33.159Z,102183.56
2023-01-05T01:16:26.979Z,102155.34
2023-01-05T01:19:14.013Z,102173.97
2023-01-05T01:22:01.099Z,102161.59
2023-01-05T01:24:48.218Z,102182.72
2023-01-05T01:27:35.339Z,102180.13
2023-01-05T01:30:22.264Z,102173.06
2023-01-05T01:33:09.808Z,102190.56
2023-01-05T01:35:59.608Z,102187.97
2023-01-05T01:38:46.580Z,102194.94
2023-01-05T01:41:33.843Z,102206.16
2023-01-05T01:44:21.767Z,102188.63
2023-01-05T01:47:09.102Z,102207.03
2023-01-05T01:49:56.125Z,102208.81
2023-01-05T01:52:45.134Z,102207.03
2023-01-05T01:55:32.430Z,102211.41
2023-01-05T01:58:23.055Z,102207.94
2023-01-05T02:01:10.214Z,102217.47
2023-01-05T02:03:58.136Z,102207.09
2023-01-05T02:06:45.270Z,102213.16
2023-01-05T02:09:32.354Z,102144.38
2023-01-05T02:12:34.675Z,102221.78
2023-01-05T02:15:52.462Z,102222.69
2023-01-05T02:19:11.018Z,102223.56
2023-01-05T02:22:31.295Z,102224.41
2023-01-05T02:25:46.497Z,102229.59
2023-01-05T02:28:54.381Z,102227.84
2023-01-05T02:31:47.600Z,102231.34
2023-01-05T02:34:57.321Z,102227.91
2023-01-05T02:37:47.436Z,102240.00
2023-01-05T02:40:57.446Z,102233.94
2023-01-05T02:43:44.621Z,102244.41
2023-01-05T02:46:31.848Z,102242.59
2023-01-05T02:49:20.721Z,102242.47
2023-01-05T02:52:11.043Z,102248.69
2023-01-05T02:55:05.437Z,102257.41
2023-01-05T02:58:07.954Z,102255.66
2023-01-05T03:01:11.610Z,102250.44
2023-01-05T03:04:08.788Z,102255.69
2023-01-05T03:07:11.308Z,102250.50
2023-01-05T03:10:01.251Z,102251.38
2023-01-05T03:12:53.926Z,102250.53
2023-01-05T03:15:51.098Z,102247.03
2023-01-05T03:18:40.657Z,102254.88
2023-01-05T03:21:27.892Z,102243.53
2023-01-05T03:24:16.034Z,102251.44
2023-01-05T03:27:02.799Z,102259.22
2023-01-05T03:29:48.584Z,102258.38
2023-01-05T03:32:42.484Z,102239.94
2023-01-05T03:35:53.369Z,102261.88
2023-01-05T03:38:54.007Z,102257.53
2023-01-05T03:41:42.840Z,102254.06
2023-01-05T03:44:30.790Z,102247.97
2023-01-05T03:47:18.720Z,102251.44
2023-01-05T03:50:07.319Z,102245.38
2023-01-05T03:52:54.483Z,102254.06
2023-01-05T03:55:41.600Z,102240.22
2023-01-05T03:58:28.726Z,102254.97
2023-01-05T04:01:16.437Z,102248.91
2023-01-05T04:04:03.661Z,102257.59
2023-01-05T04:06:50.885Z,102249.81
2023-01-05T04:09:38.049Z,102241.88
2023-01-05T04:12:25.611Z,102242.03
2023-01-05T04:15:12.579Z,102225.31
2023-01-05T04:17:59.696Z,102239.44
2023-01-05T04:20:46.644Z,102228.97
2023-01-05T04:23:34.502Z,102249.00
2023-01-05T04:26:23.547Z,102197.19
2023-01-05T04:29:11.441Z,102251.63
2023-01-05T04:31:59.810Z,102242.97
2023-01-05T04:34:47.140Z,102250.78
2023-01-05T04:37:34.142Z,102253.38
2023-01-05T04:40:21.508Z,102252.56
2023-01-05T04:43:12.221Z,102259.53
2023-01-05T04:45:59.663Z,102252.63
2023-01-05T04:48:46.869Z,102263.03
2023-01-05T04:51:35.271Z,102256.03
2023-01-05T04:54:22.973Z,102252.50
2023-01-05T04:57:09.868Z,102256.13
2023-01-05T04:59:58.207Z,102263.06
2023-01-05T05:02:45.487Z,102263.06
2023-01-05T05:05:35.136Z,102275.22
2023-01-05T05:08:22.779Z,102270.91
2023-01-05T05:11:10.330Z,102283.09
2023-01-05T05:13:59.543Z,102280.50
2023-01-05T05:16:46.766Z,102278.81
2023-01-05T05:19:33.958Z,102285.78
2023-01-05T05:22:21.927Z,102286.72
2023-01-05T05:25:08.823Z,102278.81
2023-01-05T05:28:00.614Z,102286.72
2023-01-05T05:30:47.569Z,102280.69
2023-01-05T05:33:34.575Z,102279.84
2023-01-05T05:36:21.543Z,102288.53
2023-01-05T05:39:08.653Z,102282.50
2023-01-05T05:41:55.516Z,102217.28
2023-01-05T05:44:42.920Z,102287.81
2023-01-05T05:47:29.994Z,102294.72
2023-01-05T05:50:17.008Z,102308.72
2023-01-05T05:53:06.886Z,102299.16
2023-01-05T05:55:54.773Z,102290.34
2023-01-05T05:58:42.047Z,102271.94
2023-01-05T06:01:29.571Z,102317.50
2023-01-05T06:04:16.623Z,102321.88
2023-01-05T06:07:03.547Z,102329.72
2023-01-05T06:09:50.392Z,102332.38
2023-01-05T06:12:37.441Z,102327.16
2023-01-05T06:15:26.664Z,102330.72
2023-01-05T06:18:13.526Z,102318.59
2023-01-05T06:21:01.879Z,102333.34
2023-01-05T06:23:49.488Z,102334.28
2023-01-05T06:26:36.532Z,102341.25
2023-01-05T06:29:23.483Z,102343.03
2023-01-05T06:32:10.312Z,102343.06
2023-01-05T06:34:57.851Z,102336.13
2023-01-05T06:37:44.756Z,102348.31
2023-01-05T06:40:32.201Z,102326.25
2023-01-05T06:43:19.176Z,102352.50
2023-01-05T06:46:06.366Z,102371.88
2023-01-05T06:48:53.449Z,102367.56
2023-01-05T06:51:41.102Z,102364.06
2023-01-05T06:54:28.079Z,102366.72
2023-01-05T06:56:55.061Z,102368.47
2023-01-05T06:59:22.028Z,102362.34
2023-01-05T07:01:49.177Z,102370.28
2023-01-05T07:04:16.313Z,102368.50
2023-01-05T07:06:43.273Z,102381.56
2023-01-05T07:09:10.160Z,102385.09
2023-01-05T07:11:37.217Z,102296.22
2023-01-05T07:14:04.213Z,102379.03
2023-01-05T07:16:31.193Z,102386.88
2023-01-05T07:18:58.377Z,102390.38
2023-01-05T07:21:25.640Z,102386.94
2023-01-05T07:23:52.557Z,102389.56
2023-01-05T07:26:19.586Z,102393.06
2023-01-05T07:28:46.492Z,102409.63
2023-01-05T07:31:13.766Z,102403.53
2023-01-05T07:33:40.847Z,102408.78
2023-01-05T07:36:08.279Z,102412.28
2023-01-05T07:38:35.173Z,102410.53
2023-01-05T07:41:02.949Z,102412.31
2023-01-05T07:43:29.905Z,102426.19
2023-01-05T07:46:21.087Z,102409.53
2023-01-05T07:49:08.127Z,102421.88
2023-01-05T07:51:55.169Z,102426.28
2023-01-05T07:54:42.114Z,102428.88
2023-01-05T07:57:29.054Z,102428.06
2023-01-05T08:00:15.940Z,102434.97
2023-01-05T08:03:03.174Z,102430.50
2023-01-05T08:05:50.095Z,102423.38
2023-01-05T08:08:37.254Z,102443.59
2023-01-05T08:11:25.519Z,102409.94
2023-01-05T08:14:21.335Z,102413.53
2023-01-05T08:17:08.329Z,102448.84
2023-01-05T08:19:55.168Z,102447.03
2023-01-05T08:22:42.080Z,102445.19
2023-01-05T08:25:29.571Z,102452.13
2023-01-05T08:28:16.580Z,102455.75
2023-01-05T08:31:03.610Z,102460.09
2023-01-05T08:33:50.757Z,102461.81
2023-01-05T08:36:39.842Z,102480.06
2023-01-05T08:39:26.833Z,102479.16
2023-01-05T08:42:13.800Z,102484.38
2023-01-05T08:45:00.814Z,102456.06
2023-01-05T08:47:47.979Z,102496.53
2023-01-05T08:50:34.936Z,102427.72
2023-01-05T08:53:21.890Z,102507.84
2023-01-05T08:56:08.755Z,102500.94
2023-01-05T08:58:56.983Z,102502.63
2023-01-05T09:01:44.006Z,102510.50
2023-01-05T09:04:31.134Z,102520.91
2023-01-05T09:07:18.057Z,102518.34
2023-01-05T09:10:05.221Z,102514.00
2023-01-05T09:12:52.509Z,102511.28
2023-01-05T09:15:39.513Z,102521.00
2023-01-05T09:18:26.436Z,102514.81
2023-01-05T09:21:16.546Z,102525.31
2023-01-05T09:24:03.510Z,102540.16
2023-01-05T09:26:50.432Z,102541.06
2023-01-05T09:29:37.396Z,102544.53
2023-01-05T09:32:25.851Z,102546.31
2023-01-05T09:35:13.366Z,102515.34
2023-01-05T09:38:00.367Z,102550.66
2023-01-05T09:40:49.036Z,102555.03
2023-01-05T09:43:45.480Z,102558.56
2023-01-05T09:46:37.218Z,102554.97
2023-01-05T09:49:27.048Z,102555.88
2023-01-05T09:52:26.780Z,102562.06
2023-01-05T09:55:13.595Z,102562.06
2023-01-05T09:58:00.740Z,102565.53
2023-01-05T10:00:49.454Z,102562.13
2023-01-05T10:06:34.619Z,102562.97
2023-01-05T10:09:04.356Z,102573.47
2023-01-05T10:12:09.780Z,102566.56
2023-01-05T10:15:03.132Z,102570.91
2023-01-05T10:17:54.825Z,102550.97
2023-01-05T10:21:05.312Z,102563.09
2023-01-05T10:24:21.403Z,102561.44
2023-01-05T10:27:45.351Z,102571.00
2023-01-05T10:30:48.386Z,102559.78
2023-01-05T10:33:52.022Z,102565.03
2023-01-05T10:37:11.370Z,102557.97
2023-01-05T10:40:28.944Z,102568.53
2023-01-05T10:43:47.955Z,102563.31
2023-01-05T10:46:42.641Z,102514.63
2023-01-05T10:49:39.316Z,102572.97
2023-01-05T10:52:32.599Z,102532.31
2023-01-05T10:55:22.701Z,102579.97
2023-01-05T10:58:09.683Z,102581.72
2023-01-05T11:01:01.989Z,102579.16
2023-01-05T11:04:26.991Z,102578.34
2023-01-05T11:07:02.471Z,102584.47
2023-01-05T11:09:49.887Z,102570.41
2023-01-05T11:12:40.968Z,102595.81
2023-01-05T11:15:33.724Z,102585.44
2023-01-05T11:18:22.162Z,102563.38
2023-01-05T11:21:30.549Z,102593.34
2023-01-05T11:24:20.609Z,102596.84
2023-01-05T11:27:09.974Z,102596.00
2023-01-05T11:29:56.981Z,102603.88
2023-01-05T11:32:43.947Z,102604.75
2023-01-05T11:35:56.696Z,102598.69
2023-01-05T11:38:49.034Z,102610.00
2023-01-05T11:41:36.011Z,102605.69
2023-01-05T11:44:24.091Z,102607.44
2023-01-05T11:47:11.155Z,102611.81
2023-01-05T11:49:58.700Z,102592.53
2023-01-05T11:53:03.642Z,102617.06
2023-01-05T11:55:57.473Z,102619.66
2023-01-05T11:58:46.828Z,102607.53
2023-01-05T12:01:36.629Z,102606.69
2023-01-05T12:04:32.379Z,102609.28
2023-01-05T12:07:22.389Z,102612.78
2023-01-05T12:10:19.225Z,102621.50
2023-01-05T12:13:16.083Z,102621.50
2023-01-05T12:16:35.793Z,102615.41
2023-01-05T12:19:31.829Z,102610.19
2023-01-05T12:22:24.889Z,102611.06
2023-01-05T12:25:33.663Z,102613.69
2023-01-05T12:29:34.421Z,102613.69
2023-01-05T12:35:49.090Z,102627.53
2023-01-05T12:38:41.791Z,102623.22
2023-01-05T12:41:34.399Z,102630.13
2023-01-05T12:44:33.598Z,102634.50
2023-01-05T12:47:41.338Z,102641.41
2023-01-05T12:50:28.092Z,102644.88
2023-01-05T12:53:26.062Z,102648.34
2023-01-05T12:56:21.523Z,102650.09
2023-01-05T12:59:28.232Z,102657.00
2023-01-05T13:02:26.823Z,102655.25
2023-01-05T13:05:17.021Z,102665.69
2023-01-05T13:08:03.800Z,102652.66
2023-01-05T13:10:54.036Z,102663.88
2023-01-05T13:14:04.995Z,102664.78
2023-01-05T13:17:01.199Z,102630.34
2023-01-05T13:20:05.085Z,102668.19
2023-01-05T13:22:56.386Z,102669.06
2023-01-05T13:25:47.893Z,102673.41
2023-01-05T13:28:40.479Z,102638.25
2023-01-05T13:31:52.019Z,102669.91
2023-01-05T13:35:07.057Z,102659.44
2023-01-05T13:38:25.014Z,102669.00
2023-01-05T13:41:33.139Z,102676.81
2023-01-05T13:44:25.846Z,102673.31
2023-01-05T13:47:45.854Z,102678.53
2023-01-05T13:50:51.407Z,102680.25
2023-01-05T13:53:41.865Z,102687.16
2023-01-05T13:56:48.941Z,102688.91
2023-01-05T13:59:55.024Z,102693.22
2023-01-05T14:02:56.480Z,102699.34
2023-01-05T14:05:51.561Z,102699.28
2023-01-05T14:09:13.449Z,102701.00
2023-01-05T14:12:29.187Z,102711.41
2023-01-05T14:15:27.970Z,102712.28
2023-01-05T14:18:16.327Z,102716.59
2023-01-05T14:21:10.728Z,102717.44
2023-01-05T14:23:57.660Z,102720.03
2023-01-05T14:27:19.525Z,102716.53
2023-01-05T14:30:06.453Z,102722.56
2023-01-05T14:32:59.785Z,102696.28
2023-01-05T14:35:53.680Z,102721.72
2023-01-05T14:38:44.961Z,102645.81
2023-01-05T14:41:41.153Z,102711.28
2023-01-05T14:44:40.238Z,102707.50
2023-01-05T14:47:07.634Z,102720.75
2023-01-05T14:50:15.478Z,102732.03
2023-01-05T14:53:17.845Z,102743.28
2023-01-05T14:56:13.789Z,102739.81
2023-01-05T14:58:41.304Z,102735.44
2023-01-05T15:01:17.457Z,102741.50
2023-01-05T15:04:30.943Z,102744.13
2023-01-05T15:07:30.022Z,102741.50
2023-01-05T15:11:00.904Z,102738.84
2023-01-05T15:14:11.893Z,102727.34
2023-01-05T15:17:36.243Z,102753.56
2023-01-05T15:20:41.802Z,102760.50
2023-01-05T15:23:43.677Z,102757.84
2023-01-05T15:26:46.696Z,102755.25
2023-01-05T15:29:40.046Z,102761.25
2023-01-05T15:32:46.832Z,102761.25
2023-01-05T15:35:55.927Z,102772.53
2023-01-05T15:38:46.376Z,102776.03
2023-01-05T15:41:36.675Z,102774.25
2023-01-05T15:44:23.628Z,102770.72
2023-01-05T15:47:10.758Z,102762.72
2023-01-05T15:49:58.271Z,102717.63
2023-01-05T15:52:57.804Z,102777.69
2023-01-05T15:55:46.128Z,102776.81
2023-01-05T15:58:36.375Z,102780.31
2023-01-05T16:01:32.075Z,102787.16
2023-01-05T16:04:29.368Z,102785.47
2023-01-05T16:07:21.861Z,102765.06
2023-01-05T16:10:08.949Z,102788.88
2023-01-05T16:12:56.561Z,102789.53
2023-01-05T16:15:45.147Z,102802.69
2023-01-05T16:18:39.730Z,102820.94
2023-01-05T16:21:51.932Z,102810.50
2023-01-05T16:24:47.076Z,102800.03
2023-01-05T16:27:34.870Z,102800.00
2023-01-05T16:30:53.470Z,102806.06
2023-01-05T16:33:52.163Z,102795.59
2023-01-05T16:36:41.747Z,102797.28
2023-01-05T16:39:59.630Z,102795.47
2023-01-05T16:42:52.280Z,102800.69
2023-01-05T16:45:45.370Z,102809.41
2023-01-05T16:48:57.069Z,102801.53
2023-01-05T16:51:56.349Z,102816.31
2023-01-05T16:54:48.296Z,102817.97
2023-01-05T16:57:52.185Z,102830.94
2023-01-05T17:00:48.199Z,102843.91
2023-01-05T17:03:52.392Z,102789.91
2023-01-05T17:06:51.048Z,102831.63
2023-01-05T17:09:40.384Z,102827.94
2023-01-05T17:12:27.309Z,102787.31
2023-01-05T17:15:18.556Z,102834.13
2023-01-05T17:18:05.453Z,102815.44
2023-01-05T17:21:00.257Z,102834.13
2023-01-05T17:23:48.853Z,102847.97
2023-01-05T17:26:57.868Z,102849.72
2023-01-05T17:29:51.284Z,102855.78
2023-01-05T17:32:38.819Z,102865.34
2023-01-05T17:35:26.193Z,102861.00
2023-01-05T17:38:13.179Z,102864.38
2023-01-05T17:40:41.169Z,102864.34
2023-01-05T17:43:08.069Z,102870.53
2023-01-05T17:45:40.033Z,102876.63
2023-01-05T17:48:27.117Z,102874.00
2023-01-05T17:51:14.161Z,102869.69
2023-01-05T17:54:01.341Z,102873.19
2023-01-05T17:56:48.246Z,102880.16
2023-01-05T17:59:35.241Z,102878.47
2023-01-05T18:02:22.265Z,102858.03
2023-01-05T18:05:09.290Z,102847.38
2023-01-05T18:07:57.690Z,102868.66
2023-01-05T18:10:45.442Z,102883.66
2023-01-05T18:13:32.965Z,102886.28
2023-01-05T18:16:25.762Z,102865.03
2023-01-05T18:22:05.383Z,102900.16
2023-01-05T18:24:52.272Z,102901.91
2023-01-05T18:27:39.349Z,102901.84
2023-01-05T18:30:28.369Z,102900.94
2023-01-05T18:33:15.492Z,102892.19
2023-01-05T18:36:03.295Z,102905.25
2023-01-05T18:38:50.226Z,102869.72
2023-01-05T18:41:42.614Z,102907.75
2023-01-05T18:44:29.906Z,102908.59
2023-01-05T18:47:17.065Z,102905.09
2023-01-05T18:50:04.762Z,102905.09
2023-01-05T18:52:52.553Z,102907.66
2023-01-05T18:55:39.576Z,102918.91
2023-01-05T18:58:06.405Z,102920.63
2023-01-05T19:00:53.566Z,102850.63
2023-01-05T19:03:40.425Z,102900.94
2023-01-05T19:06:32.894Z,102902.97
2023-01-05T19:09:22.427Z,102913.47
2023-01-05T19:12:09.469Z,102915.28
2023-01-05T19:14:36.781Z,102875.22
2023-01-05T19:17:23.767Z,102923.91
2023-01-05T19:20:10.628Z,102917.84
2023-01-05T19:22:57.602Z,102930.00
2023-01-05T19:25:44.527Z,102900.66
2023-01-05T19:28:31.482Z,102921.19
2023-01-05T19:31:25.481Z,102922.13
2023-01-05T19:34:13.881Z,102932.50
2023-01-05T19:37:01.004Z,102934.25
2023-01-05T19:39:48.023Z,102939.34
2023-01-05T19:42:34.973Z,102943.72
2023-01-05T19:45:22.117Z,102951.47
2023-01-05T19:48:09.286Z,102947.00
2023-01-05T19:50:56.227Z,102950.56
2023-01-05T19:53:43.390Z,102948.75
2023-01-05T19:56:34.853Z,102959.16
2023-01-05T19:59:24.141Z,102963.50
2023-01-05T20:02:11.317Z,102956.56
2023-01-05T20:04:58.202Z,102959.09
2023-01-05T20:07:45.715Z,102959.09
2023-01-05T20:10:32.815Z,102962.56
2023-01-05T20:13:19.698Z,102964.25
2023-01-05T20:16:06.637Z,102946.44
2023-01-05T20:18:54.062Z,102972.91
2023-01-05T20:21:40.944Z,102971.13
2023-01-05T20:24:32.105Z,102978.88
2023-01-05T20:27:21.846Z,102944.34
2023-01-05T20:30:09.796Z,102972.50
2023-01-05T20:32:56.621Z,102977.94
2023-01-05T20:35:43.610Z,102976.16
2023-01-05T20:38:30.488Z,102977.00
2023-01-05T20:41:17.560Z,102962.63
2023-01-05T20:44:06.611Z,102980.44
2023-01-05T20:47:02.618Z,102972.56
2023-01-05T20:49:50.192Z,102975.97
2023-01-05T20:52:37.800Z,102970.78
2023-01-05T20:55:24.879Z,102975.13
2023-01-05T20:58:12.025Z,102969.00
2023-01-05T21:01:10.027Z,102978.53
2023-01-05T21:03:59.271Z,102977.44
2023-01-05T21:06:46.284Z,102986.28
2023-01-05T21:09:33.577Z,102985.19
2023-01-05T21:12:20.430Z,102994.81
2023-01-05T21:15:07.626Z,102990.31
2023-01-05T21:17:54.665Z,102995.69
2023-01-05T21:20:41.697Z,102993.03
2023-01-05T21:23:28.528Z,102960.03
2023-01-05T21:26:15.850Z,102999.16
2023-01-05T21:29:03.930Z,102992.19
2023-01-05T21:31:51.124Z,103000.00
2023-01-05T21:34:38.213Z,103002.59
2023-01-05T21:37:25.404Z,102999.09
2023-01-05T21:40:12.356Z,102996.44
2023-01-05T21:43:05.394Z,102994.81
2023-01-05T21:45:52.474Z,102998.25
2023-01-05T21:48:39.793Z,102999.94
2023-01-05T21:51:24.953Z,103001.66
2023-01-05T21:54:10.963Z,103004.25
2023-01-05T21:57:00.824Z,102994.44
2023-01-05T21:59:47.924Z,102958.84
2023-01-05T22:02:34.815Z,103013.56
2023-01-05T22:05:21.938Z,103023.25
2023-01-05T22:08:08.909Z,103026.69
2023-01-05T22:10:55.912Z,103024.03
2023-01-05T22:13:43.909Z,103023.19
2023-01-05T22:16:31.089Z,102953.97
2023-01-05T22:19:17.893Z,103018.56
2023-01-05T22:22:05.128Z,103034.31
2023-01-05T22:24:52.034Z,103028.97
2023-01-05T22:27:39.067Z,103034.31
2023-01-05T22:30:26.553Z,103030.75
2023-01-05T22:33:13.510Z,103022.78
2023-01-05T22:36:00.398Z,103003.13
2023-01-05T22:38:48.581Z,103024.41
2023-01-05T22:41:38.999Z,102998.09
2023-01-05T22:44:26.504Z,103056.72
2023-01-05T22:47:13.313Z,103047.94
2023-01-05T22:50:00.328Z,103055.69
2023-01-05T22:52:47.132Z,103056.53
2023-01-05T22:55:34.143Z,103044.38
2023-01-05T22:58:20.958Z,103044.31
2023-01-05T23:01:08.118Z,103036.47
2023-01-05T23:03:55.205Z,103004.16
2023-01-05T23:06:42.899Z,103047.66
2023-01-05T23:09:33.313Z,103044.97
2023-01-05T23:12:20.361Z,103054.44
2023-01-05T23:15:07.188Z,103047.53
2023-01-05T23:17:54.260Z,103022.47
2023-01-05T23:20:41.095Z,103057.69
2023-01-05T23:23:28.224Z,103052.09
2023-01-05T23:26:15.189Z,103062.94
2023-01-05T23:29:03.862Z,103066.38
2023-01-05T23:31:50.693Z,103077.59
2023-01-05T23:34:40.016Z,103081.91
2023-01-05T23:37:26.994Z,103084.47
2023-01-05T23:39:54.178Z,103076.59
2023-01-05T23:42:39.457Z,103065.94
2023-01-05T23:45:06.980Z,103080.91
2023-01-05T23:47:33.857Z,103077.41
2023-01-05T23:50:00.805Z,103078.16
2023-01-05T23:52:47.885Z,103085.19
2023-01-05T23:55:34.704Z,103083.38
2023-01-05T23:58:22.215Z,103094.75
